Nearby METAR Reports

Here are local weather reports from nearby weather stations and airports.

KHFD - Hartford/Brainar, Connecticut, USA
Distance from station: NE 5mi, 8km
Updated: Fri, 08/23/2019 11:53pm EDT
Clear
Clear
 Wind from calm
Wind: Calm
Temperature: 66°F , 19°C
Dew Point: 55°F , 13°C
Humidity: 68%
Barometer: 30.06 inHg , 1017.9 hPa
Clouds: Clear
Visibility: 10 miles , 16 km
2019/08/24 03:53 KHFD 240353Z 00000KT 10SM CLR 19/13 A3006 RMK AO2 SLP179 T01890133
KMMK - Meriden, Connecticut, USA
Distance from station: SSW 13mi, 21km
Updated: Fri, 08/23/2019 11:53pm EDT
Partly cloudy
Partly cloudy
 Wind from WNW
Wind: WNW 3 mph , 6 km/h
Temperature: 61°F , 16°C
Dew Point: 57°F , 14°C
Humidity: 88%
Barometer: 30.07 inHg , 1018.3 hPa
Clouds: Partly cloudy
Visibility: 10 miles , 16 km
Cloud details: Partly cloudy 6500 ft
2019/08/24 03:53 KMMK 240353Z AUTO 29003KT 10SM SCT065 16/14 A3007 RMK AO2 SLP179 T01610139
 
KBDL - Windsor Locks, Connecticut, USA
Distance from station: N 17mi, 28km
Updated: Fri, 08/23/2019 11:51pm EDT
Few Clouds
Few Clouds
 Wind from NNW
Wind: NNW 7 mph , 11 km/h
Temperature: 61°F , 16°C
Dew Point: 55°F , 13°C
Humidity: 83%
Barometer: 30.07 inHg , 1018.3 hPa
Clouds: Few Clouds
Visibility: 10 miles , 16 km
Cloud details: Few Clouds 7000 ft
Few Clouds 25000 ft
2019/08/24 03:51 KBDL 240351Z 33006KT 10SM FEW070 FEW250 16/13 A3007 RMK AO2 SLP181 T01610128
KSNC - Chester, Connecticut, USA
Distance from station: SSE 24mi, 38km
Updated: Sat, 08/24/2019 12:35am EDT
Clear
Clear
 Wind from NNW
Wind: NNW 5 mph , 7 km/h
Temperature: 63°F , 17°C
Dew Point: 57°F , 14°C
Humidity: 83%
Barometer: 30.07 inHg , 1018.3 hPa
Clouds: Clear
Visibility: 10 miles , 16 km
2019/08/24 04:35 KSNC 240435Z AUTO 33004KT 10SM CLR 17/14 A3007 RMK AO2
 
KOXC - Oxford/Waterbury, Connecticut, USA
Distance from station: SW 26mi, 42km
Updated: Fri, 08/23/2019 11:51pm EDT
Clear
Clear
 Wind from NNE
Wind: NNE 7 mph , 11 km/h
Temperature: 61°F , 16°C
Dew Point: 55°F , 13°C
Humidity: 83%
Barometer: 30.09 inHg , 1019 hPa
Clouds: Clear
Visibility: 10 miles , 16 km
2019/08/24 03:51 KOXC 240351Z AUTO 03006KT 10SM CLR 16/13 A3009 RMK AO2 SLP198 T01610133
KIJD - Willimantic, Connecticut, USA
Distance from station: E 28mi, 45km
Updated: Fri, 08/23/2019 11:52pm EDT
Clear
Clear
 Wind from N
Wind: N 3 mph , 6 km/h
Temperature: 61°F , 16°C
Dew Point: 57°F , 14°C
Humidity: 88%
Barometer: 30.07 inHg , 1018.3 hPa
Clouds: Clear
Visibility: 10 miles , 16 km
2019/08/24 03:52 KIJD 240352Z AUTO 01003KT 10SM CLR 16/14 A3007 RMK AO2 SLP181 T01560144
 
KHVN - New Haven/Tweed, Connecticut, USA
Distance from station: SSW 30mi, 48km
Updated: Fri, 08/23/2019 11:53pm EDT
Clear
Clear
 Wind from N
Wind: N 7 mph , 11 km/h
Temperature: 66°F , 19°C
Dew Point: 57°F , 14°C
Humidity: 73%
Barometer: 30.05 inHg , 1017.6 hPa
Clouds: Clear
Visibility: 10 miles , 16 km
2019/08/24 03:53 KHVN 240353Z AUTO 36006KT 10SM CLR 19/14 A3005 RMK AO2 SLP176 T01890144
KBAF - Westfield, Massachusetts, USA
Distance from station: 0 33mi, 54km
Updated: Fri, 08/23/2019 11:53pm EDT
Clear
Clear
 Wind from NNE
Wind: NNE 5 mph , 7 km/h
Temperature: 61°F , 16°C
Dew Point: 55°F , 13°C
Humidity: 83%
Barometer: 30.08 inHg , 1018.6 hPa
Clouds: Clear
Visibility: 10 miles , 16 km
2019/08/24 03:53 KBAF 240353Z AUTO 02004KT 10SM CLR 16/13 A3008 RMK AO2 SLP183 T01560128
 
KCEF - Chicopee/Westove, Massachusetts, USA
Distance from station: NNE 37mi, 60km
Updated: Fri, 08/23/2019 11:56pm EDT
Clear
Clear
 Wind from NNE
Wind: NNE 5 mph , 7 km/h
Temperature: 57°F , 14°C
Dew Point: 55°F , 13°C
Humidity: 94%
Barometer: 30.06 inHg , 1017.9 hPa
Clouds: Clear
Visibility: 10 miles , 16 km
2019/08/24 03:56 KCEF 240356Z AUTO 02004KT 10SM CLR 14/13 A3006 RMK AO2 SLP185 T01420129
KBDR - Bridgeport, Connecticut, USA
Distance from station: SSW 42mi, 67km
Updated: Fri, 08/23/2019 11:52pm EDT
Mostly cloudy
Mostly cloudy
 Wind from N
Wind: N 8 mph , 13 km/h
Temperature: 66°F , 19°C
Dew Point: 55°F , 13°C
Humidity: 68%
Barometer: 30.05 inHg , 1017.6 hPa
Clouds: Mostly cloudy
Visibility: 10 miles , 16 km
Cloud details: Mostly cloudy 6500 ft
2019/08/24 03:52 KBDR 240352Z AUTO 36007KT 10SM BKN065 19/13 A3005 RMK AO2 SLP176 T01890133
 
KGON - Groton/New Londo, Connecticut, USA
Distance from station: SE 42mi, 68km
Updated: Fri, 08/23/2019 11:56pm EDT
Mostly cloudy
Mostly cloudy
 Wind from N
Wind: N 10 mph , 17 km/h
Temperature: 66°F , 19°C
Dew Point: 57°F , 14°C
Humidity: 73%
Barometer: 30.04 inHg , 1017.3 hPa
Clouds: Mostly cloudy
Visibility: 10 miles , 16 km
Cloud details: Mostly cloudy 6000 ft
2019/08/24 03:56 KGON 240356Z AUTO 36009KT 10SM BKN060 19/14 A3004 RMK AO2 SLP171 T01940144 $
KDXR - Danbury, Connecticut, USA
Distance from station: WSW 45mi, 73km
Updated: Fri, 08/23/2019 11:53pm EDT
Clear
Clear
 Wind from WSW
Wind: WSW 5 mph , 7 km/h
Temperature: 57°F , 14°C
Dew Point: 55°F , 13°C
Humidity: 94%
Barometer: 30.09 inHg , 1019 hPa
Clouds: Clear
Visibility: 10 miles , 16 km
2019/08/24 03:53 KDXR 240353Z AUTO 24004KT 10SM CLR 14/13 A3009 RMK AO2 SLP188 T01440128